Time;durP1;ratioP1;P1;durP2;ratioP2;P2;SDS_P1;SDS_P2;PMS_P1;PMS_P2;Temp;Humidity;BMP_temperature;BMP_pressure;BME280_temperature;BME280_humidity;BME280_pressure;Samples;Min_cycle;Max_cycle;Signal;HPM_P1;HPM_P2
2021/05/13 00:01:54;;;;;;;;;;;16.00;89.30;;;;;;5066598;28;20028;-67
2021/05/13 00:04:20;;;;;;;4.93;3.13;;;16.00;89.40;;;;;;5065932;28;19909;-68
2021/05/13 00:06:46;;;;;;;5.40;3.97;;;16.00;89.30;;;;;;5065669;28;20034;-67
2021/05/13 00:09:11;;;;;;;8.45;4.35;;;15.90;89.90;;;;;;5065706;28;20386;-68
2021/05/13 00:11:38;;;;;;;;;;;15.90;90.20;;;;;;5066688;28;20043;-68
2021/05/13 00:14:06;;;;;;;9.43;6.47;;;15.90;90.60;;;;;;5066104;28;19943;-68
2021/05/13 00:16:34;;;;;;;9.18;6.05;;;15.90;90.50;;;;;;5065412;28;20033;-68
2021/05/13 00:19:04;;;;;;;12.32;6.70;;;15.90;90.60;;;;;;5068367;28;20082;-67
2021/05/13 00:21:29;;;;;;;10.02;7.68;;;15.90;90.70;;;;;;5069382;28;20025;-68
2021/05/13 00:23:55;;;;;;;8.90;7.80;;;15.90;90.80;;;;;;5070008;28;20038;-68
2021/05/13 00:26:38;;;;;;;10.50;7.50;;;15.80;90.90;;;;;;5069970;28;20099;-68
2021/05/13 00:29:09;;;;;;;14.32;9.23;;;15.80;91.10;;;;;;5069771;28;20024;-68
2021/05/13 00:31:34;;;;;;;11.13;7.68;;;15.70;91.30;;;;;;5069823;28;20108;-66
2021/05/13 00:34:01;;;;;;;;;;;15.60;91.40;;;;;;5069822;28;20429;-67
2021/05/13 00:36:31;;;;;;;10.07;7.53;;;15.60;91.60;;;;;;5069417;28;20116;-68
2021/05/13 00:38:59;;;;;;;12.43;7.82;;;15.50;91.50;;;;;;5069809;28;20036;-67
2021/05/13 00:41:24;;;;;;;11.65;8.57;;;15.50;91.60;;;;;;5069805;28;20024;-67
2021/05/13 00:43:50;;;;;;;;;;;15.50;91.80;;;;;;5069509;28;20024;-67
2021/05/13 00:46:16;;;;;;;11.80;7.35;;;15.40;92.00;;;;;;5069706;28;19982;-67
2021/05/13 00:48:45;;;;;;;17.08;7.07;;;15.40;92.00;;;;;;5069544;28;20067;-67
2021/05/13 00:51:11;;;;;;;9.05;7.35;;;15.40;92.20;;;;;;5069001;28;20463;-67
2021/05/13 00:53:38;;;;;;;;;;;15.30;92.60;;;;;;5069528;28;20036;-67
2021/05/13 00:56:04;;;;;;;;;;;15.20;92.80;;;;;;5068309;28;20479;-66
2021/05/13 00:58:33;;;;;;;7.97;5.45;;;15.20;92.90;;;;;;5069187;28;19999;-67
2021/05/13 01:01:11;;;;;;;12.25;5.88;;;15.10;92.90;;;;;;5069312;28;20031;-68
2021/05/13 01:03:37;;;;;;;11.30;6.30;;;15.10;92.80;;;;;;5069230;28;20035;-67
2021/05/13 01:06:04;;;;;;;;;;;15.10;92.90;;;;;;5069336;28;20032;-67
2021/05/13 01:08:29;;;;;;;9.57;5.57;;;15.10;93.00;;;;;;5068802;28;19908;-67
2021/05/13 01:10:55;;;;;;;;;;;15.10;93.10;;;;;;5069383;28;20024;-68
2021/05/13 01:13:23;;;;;;;9.63;5.47;;;15.10;93.50;;;;;;5068709;28;19905;-67
2021/05/13 01:15:54;;;;;;;9.52;6.18;;;15.10;93.30;;;;;;5068885;28;20622;-68
2021/05/13 01:18:24;;;;;;;10.45;5.15;;;15.10;93.40;;;;;;5068681;28;20031;-68
2021/05/13 01:20:51;;;;;;;13.35;5.93;;;15.10;93.40;;;;;;5067265;28;20036;-67
2021/05/13 01:23:17;;;;;;;8.68;5.10;;;15.10;93.60;;;;;;5068540;28;20066;-67
2021/05/13 01:25:51;;;;;;;8.30;4.60;;;15.10;93.50;;;;;;5067626;28;20582;-67
2021/05/13 01:28:18;;;;;;;13.75;5.47;;;15.10;93.50;;;;;;5068917;28;20028;-67
2021/05/13 01:30:45;;;;;;;9.90;5.22;;;15.10;93.40;;;;;;5067598;28;20036;-68
2021/05/13 01:33:12;;;;;;;7.20;4.68;;;15.10;93.50;;;;;;5068718;28;20052;-68
2021/05/13 01:35:42;;;;;;;9.18;5.10;;;15.10;93.50;;;;;;5067828;28;20032;-67
2021/05/13 01:38:10;;;;;;;7.07;4.63;;;15.00;93.60;;;;;;5068744;28;20098;-67
2021/05/13 01:40:37;;;;;;;8.82;5.88;;;15.00;93.70;;;;;;5068134;28;20477;-67
2021/05/13 01:43:03;;;;;;;12.13;5.78;;;15.00;94.00;;;;;;5068606;28;20028;-67
2021/05/13 01:45:29;;;;;;;9.77;5.57;;;14.90;94.00;;;;;;5068521;28;20040;-67
2021/05/13 01:48:01;;;;;;;;;;;14.90;94.30;;;;;;5068391;28;20029;-67
2021/05/13 01:50:29;;;;;;;10.23;6.00;;;14.90;94.50;;;;;;5067571;28;19915;-68
2021/05/13 01:52:56;;;;;;;11.95;6.25;;;14.80;94.70;;;;;;5068271;28;20040;-67
2021/05/13 01:55:21;;;;;;;10.80;6.18;;;14.80;94.40;;;;;;5067743;28;20031;-68
2021/05/13 01:57:47;;;;;;;;;;;14.80;94.70;;;;;;5068800;28;20801;-68
2021/05/13 02:00:13;;;;;;;9.05;5.97;;;14.80;94.80;;;;;;5067885;28;20218;-67
2021/05/13 02:02:39;;;;;;;9.77;6.05;;;14.70;94.80;;;;;;5068065;28;20028;-67
2021/05/13 02:05:04;;;;;;;;;;;14.70;94.80;;;;;;5067845;28;20032;-68
2021/05/13 02:07:30;;;;;;;11.93;6.72;;;14.70;95.00;;;;;;5068316;28;20295;-68
2021/05/13 02:09:55;;;;;;;;;;;14.60;94.90;;;;;;5067691;28;20566;-66
2021/05/13 02:12:21;;;;;;;8.52;5.93;;;14.60;95.10;;;;;;5066342;28;19908;-67
2021/05/13 02:14:47;;;;;;;;;;;14.60;95.10;;;;;;5067831;28;20123;-67
2021/05/13 02:17:12;;;;;;;9.98;5.93;;;14.70;95.40;;;;;;5067879;28;20308;-67
2021/05/13 02:19:38;;;;;;;;;;;14.70;95.30;;;;;;5067943;28;20035;-66
2021/05/13 02:22:03;;;;;;;17.05;7.20;;;14.70;95.10;;;;;;5067417;28;19905;-67
2021/05/13 02:24:29;;;;;;;;;;;14.70;95.10;;;;;;5067833;28;20033;-67
2021/05/13 02:26:54;;;;;;;12.20;6.63;;;14.70;95.30;;;;;;5067541;28;19915;-66
2021/05/13 02:29:20;;;;;;;10.05;6.22;;;14.70;95.20;;;;;;5067719;28;20070;-68
2021/05/13 02:31:46;;;;;;;;;;;14.70;95.30;;;;;;5066634;28;20039;-66
2021/05/13 02:34:11;;;;;;;7.38;5.70;;;14.70;95.40;;;;;;5067212;28;20364;-67
2021/05/13 02:36:37;;;;;;;;;;;14.80;95.20;;;;;;5067492;28;20032;-68
2021/05/13 02:39:03;;;;;;;9.40;5.63;;;14.80;95.40;;;;;;5067543;28;20372;-66
2021/05/13 02:41:29;;;;;;;7.32;5.68;;;14.80;95.30;;;;;;5067348;28;20759;-67
2021/05/13 02:43:54;;;;;;;;;;;14.80;95.10;;;;;;5066033;28;20024;-67
2021/05/13 02:46:20;;;;;;;14.30;12.48;;;14.80;95.00;;;;;;5067128;28;19923;-67
2021/05/13 02:48:45;;;;;;;;;;;14.80;94.80;;;;;;5067440;28;20309;-65
2021/05/13 02:51:11;;;;;;;21.23;15.48;;;14.80;94.70;;;;;;5067050;28;19915;-66
2021/05/13 02:53:37;;;;;;;21.35;17.50;;;14.70;94.60;;;;;;5067166;28;20119;-67
2021/05/13 02:56:03;;;;;;;;;;;14.70;94.50;;;;;;5067439;28;20309;-67
2021/05/13 02:58:29;;;;;;;20.55;18.15;;;14.60;94.60;;;;;;5066883;28;19905;-67
2021/05/13 03:01:07;;;;;;;;;;;14.60;94.40;;;;;;5067310;28;20036;-67
2021/05/13 03:03:33;;;;;;;23.42;19.33;;;14.60;94.40;;;;;;5066038;28;19955;-66
2021/05/13 03:05:59;;;;;;;25.83;21.65;;;14.50;94.50;;;;;;5066883;28;20493;-66
2021/05/13 03:08:25;;;;;;;;;;;14.50;94.50;;;;;;5067258;28;20032;-66
2021/05/13 03:10:50;;;;;;;29.20;21.75;;;14.40;94.70;;;;;;5065029;28;19915;-67
2021/05/13 03:13:27;;;;;;;;;;;14.40;94.60;;;;;;5066786;28;20060;-66
2021/05/13 03:15:52;;;;;;;24.73;20.77;;;14.40;94.70;;;;;;5066173;28;20012;-67
2021/05/13 03:18:21;;;;;;;;;;;14.40;94.70;;;;;;5067334;28;20143;-67
2021/05/13 03:20:54;;;;;;;29.42;21.50;;;14.30;95.00;;;;;;5064808;28;19999;-67
2021/05/13 03:23:27;;;;;;;29.83;23.02;;;14.30;94.90;;;;;;5066538;28;20055;-66
2021/05/13 03:25:59;;;;;;;29.98;21.73;;;14.30;94.90;;;;;;5066497;28;20404;-67
2021/05/13 03:28:24;;;;;;;28.73;21.85;;;14.30;95.00;;;;;;5066289;28;20507;-65
2021/05/13 03:30:50;;;;;;;;;;;14.30;95.00;;;;;;5066834;28;20040;-65
2021/05/13 03:33:15;;;;;;;25.85;20.08;;;14.30;95.00;;;;;;5065960;28;19938;-66
2021/05/13 03:35:41;;;;;;;;;;;14.20;95.00;;;;;;5066846;28;20043;-65
2021/05/13 03:38:09;;;;;;;27.63;21.73;;;14.30;95.10;;;;;;5066207;28;19916;-64
2021/05/13 03:40:36;;;;;;;26.45;21.02;;;14.30;95.10;;;;;;5066123;28;20035;-67
2021/05/13 03:43:02;;;;;;;24.52;21.85;;;14.30;95.10;;;;;;5066203;28;20025;-66
2021/05/13 03:45:28;;;;;;;;;;;14.30;94.90;;;;;;5066381;28;20073;-66
2021/05/13 03:47:54;;;;;;;28.52;21.60;;;14.30;95.00;;;;;;5066278;28;20241;-66
2021/05/13 03:50:20;;;;;;;28.48;22.45;;;14.30;94.90;;;;;;5065578;28;20024;-67
2021/05/13 03:52:46;;;;;;;23.65;20.58;;;14.20;94.90;;;;;;5064372;28;20483;-66
2021/05/13 03:55:12;;;;;;;;;;;14.20;95.00;;;;;;5066714;28;20031;-66
2021/05/13 03:57:38;;;;;;;25.58;21.13;;;14.30;94.90;;;;;;5065812;28;20300;-66
2021/05/13 04:00:11;;;;;;;27.45;21.30;;;14.20;94.90;;;;;;5064801;28;20428;-67
2021/05/13 04:02:37;;;;;;;26.58;21.17;;;14.20;95.00;;;;;;5064914;28;20032;-66
2021/05/13 04:05:03;;;;;;;;;;;14.20;95.00;;;;;;5065891;28;20029;-65
2021/05/13 04:07:31;;;;;;;23.55;19.23;;;14.20;95.00;;;;;;5065706;28;20365;-67
2021/05/13 04:09:57;;;;;;;27.60;19.88;;;14.20;94.90;;;;;;5066241;28;20455;-66
2021/05/13 04:12:24;;;;;;;25.17;21.13;;;14.20;95.00;;;;;;5066033;28;20297;-66
2021/05/13 04:14:51;;;;;;;24.30;20.05;;;14.20;95.00;;;;;;5065768;28;20025;-67
2021/05/13 04:17:17;;;;;;;25.35;20.15;;;14.20;95.10;;;;;;5066024;28;20119;-66
2021/05/13 04:19:43;;;;;;;;;;;14.20;95.00;;;;;;5066212;28;20108;-66
2021/05/13 04:22:08;;;;;;;24.38;18.25;;;14.20;95.10;;;;;;5065569;28;19908;-66
2021/05/13 04:24:34;;;;;;;23.15;18.13;;;14.20;95.10;;;;;;5065313;28;20029;-67
2021/05/13 04:27:00;;;;;;;;;;;14.20;95.00;;;;;;5066695;28;20033;-66
2021/05/13 04:29:26;;;;;;;28.15;18.45;;;14.30;95.10;;;;;;5065851;28;19912;-66
2021/05/13 04:31:52;;;;;;;25.88;19.50;;;14.30;95.10;;;;;;5064359;28;20481;-65
2021/05/13 04:34:18;;;;;;;;;;;14.40;94.90;;;;;;5066021;28;20067;-67
2021/05/13 04:36:43;;;;;;;27.08;20.05;;;14.40;94.70;;;;;;5065646;28;19916;-66
2021/05/13 04:39:09;;;;;;;23.50;19.83;;;14.40;94.60;;;;;;5065581;28;20043;-67
2021/05/13 04:41:35;;;;;;;25.85;19.88;;;14.50;94.50;;;;;;5065451;28;20365;-64
2021/05/13 04:44:02;;;;;;;21.55;17.75;;;14.50;94.70;;;;;;5065531;28;20032;-67
2021/05/13 04:46:32;;;;;;;21.35;17.00;;;14.50;94.60;;;;;;5065786;28;20554;-67
2021/05/13 04:51:32;;;;;;;24.73;19.92;;;14.60;94.20;;;;;;5065665;28;20030;-66
2021/05/13 04:53:58;;;;;;;24.08;20.27;;;14.60;94.30;;;;;;5065609;28;20028;-66
2021/05/13 04:56:24;;;;;;;24.65;19.50;;;14.60;94.30;;;;;;5065649;28;20024;-66
2021/05/13 04:58:50;;;;;;;24.92;20.90;;;14.60;94.00;;;;;;5065781;28;20029;-67
2021/05/13 05:01:16;;;;;;;;;;;14.60;94.10;;;;;;5066278;28;20119;-66
2021/05/13 05:03:42;;;;;;;25.52;20.63;;;14.60;94.20;;;;;;5064853;28;20351;-66
2021/05/13 05:06:10;;;;;;;26.15;20.08;;;14.60;94.20;;;;;;5067223;28;20086;-67
2021/05/13 05:08:36;;;;;;;23.27;19.90;;;14.60;94.20;;;;;;5069136;28;20070;-67
2021/05/13 05:11:01;;;;;;;24.85;20.27;;;14.60;94.10;;;;;;5069369;28;20424;-67
2021/05/13 05:13:28;;;;;;;;;;;14.60;94.10;;;;;;5069274;28;20038;-66
2021/05/13 05:15:53;;;;;;;22.00;18.63;;;14.50;94.10;;;;;;5068911;28;19914;-66
2021/05/13 05:18:19;;;;;;;;;;;14.50;94.00;;;;;;5069044;28;20044;-65
2021/05/13 05:20:45;;;;;;;26.80;20.65;;;14.50;94.60;;;;;;5069053;28;19910;-66
2021/05/13 05:23:11;;;;;;;;;;;14.50;94.20;;;;;;5068882;28;20523;-67
2021/05/13 05:25:38;;;;;;;22.70;19.40;;;14.60;94.60;;;;;;5068942;28;19919;-66
2021/05/13 05:28:04;;;;;;;22.23;18.83;;;14.60;94.30;;;;;;5068743;28;20067;-66
2021/05/13 05:30:33;;;;;;;23.08;18.88;;;14.60;94.20;;;;;;5068895;28;20074;-66
2021/05/13 05:33:02;;;;;;;21.13;18.40;;;14.70;94.10;;;;;;5068408;28;20020;-66
2021/05/13 05:35:28;;;;;;;21.75;18.92;;;14.70;94.00;;;;;;5060786;28;20028;-66
2021/05/13 05:37:54;;;;;;;;;;;14.80;93.80;;;;;;5069076;28;20101;-66
2021/05/13 05:40:21;;;;;;;26.00;19.55;;;14.80;93.70;;;;;;5068680;28;20380;-67
2021/05/13 05:42:47;;;;;;;22.00;16.65;;;14.70;93.70;;;;;;5068507;28;20103;-67
2021/05/13 05:45:14;;;;;;;27.00;20.45;;;14.70;93.60;;;;;;5068375;28;20331;-68
2021/05/13 05:47:39;;;;;;;21.58;16.70;;;14.80;93.70;;;;;;5067677;28;20176;-67
2021/05/13 05:50:05;;;;;;;;;;;14.70;93.90;;;;;;5068921;28;20036;-67
2021/05/13 05:52:31;;;;;;;24.95;17.80;;;14.80;94.00;;;;;;5066896;28;20376;-67
2021/05/13 05:54:56;;;;;;;;;;;14.80;93.90;;;;;;5068520;28;20120;-66
2021/05/13 05:57:22;;;;;;;20.50;15.38;;;14.90;94.00;;;;;;5067806;28;19923;-67
2021/05/13 05:59:48;;;;;;;22.10;16.05;;;14.90;93.90;;;;;;5068263;28;20060;-67
2021/05/13 06:02:13;;;;;;;;;;;15.00;93.70;;;;;;5067983;28;20492;-66
2021/05/13 06:04:39;;;;;;;22.88;17.90;;;15.10;93.40;;;;;;5066247;28;19974;-67
2021/05/13 06:07:06;;;;;;;;;;;15.10;93.30;;;;;;5068476;28;20604;-67
2021/05/13 06:09:32;;;;;;;22.73;18.08;;;15.20;93.20;;;;;;5068029;28;19939;-67
2021/05/13 06:11:57;;;;;;;;;;;15.10;93.20;;;;;;5068669;28;20083;-66
2021/05/13 06:14:23;;;;;;;24.02;17.20;;;15.10;93.00;;;;;;5067311;28;19908;-67
2021/05/13 06:16:50;;;;;;;22.42;17.73;;;15.10;93.20;;;;;;5067217;28;20844;-67
2021/05/13 06:19:18;;;;;;;25.48;16.80;;;15.10;93.30;;;;;;5067715;28;20025;-67
2021/05/13 06:21:43;;;;;;;18.15;13.75;;;15.10;93.30;;;;;;5067945;28;20020;-66
2021/05/13 06:24:11;;;;;;;20.70;14.82;;;15.10;93.30;;;;;;5067844;28;20039;-67
2021/05/13 06:26:38;;;;;;;18.73;13.02;;;15.20;93.60;;;;;;5067717;28;20025;-67
2021/05/13 06:29:05;;;;;;;19.23;14.38;;;15.20;93.60;;;;;;5067268;28;20407;-66
2021/05/13 06:31:57;;;;;;;20.80;15.18;;;15.20;93.40;;;;;;5066911;28;20543;-67
2021/05/13 06:34:24;;;;;;;15.70;12.32;;;15.20;93.30;;;;;;5064238;28;20060;-67
2021/05/13 06:36:50;;;;;;;17.42;14.23;;;15.30;93.30;;;;;;5067503;28;20123;-67
2021/05/13 06:39:16;;;;;;;15.13;12.73;;;15.40;93.30;;;;;;5067553;28;20033;-67
2021/05/13 06:41:42;;;;;;;15.95;12.38;;;15.40;93.20;;;;;;5067385;28;20405;-67
2021/05/13 06:44:11;;;;;;;14.43;11.90;;;15.30;92.80;;;;;;5067193;28;20086;-66
2021/05/13 06:46:37;;;;;;;18.05;13.10;;;15.30;92.80;;;;;;5066498;28;20510;-69
2021/05/13 06:49:03;;;;;;;22.77;16.10;;;15.30;92.80;;;;;;5065645;28;20058;-67
2021/05/13 06:51:29;;;;;;;20.40;15.05;;;15.30;92.70;;;;;;5067212;28;20032;-66
2021/05/13 06:53:55;;;;;;;16.08;13.30;;;15.20;92.70;;;;;;5066892;28;20511;-67
2021/05/13 06:56:21;;;;;;;18.45;13.25;;;15.10;93.10;;;;;;5066720;28;20103;-67
2021/05/13 06:58:47;;;;;;;16.92;12.38;;;15.10;93.20;;;;;;5067115;28;20508;-67
2021/05/13 07:01:13;;;;;;;20.08;15.07;;;15.10;93.40;;;;;;5066483;28;20381;-66
2021/05/13 07:03:39;;;;;;;17.98;13.18;;;15.10;93.50;;;;;;5066984;28;20036;-67
2021/05/13 07:06:05;;;;;;;23.58;15.57;;;15.20;93.40;;;;;;5067054;28;20039;-66
2021/05/13 07:08:31;;;;;;;16.17;12.90;;;15.20;93.50;;;;;;5066983;28;20024;-67
2021/05/13 07:10:58;;;;;;;15.57;13.27;;;15.20;93.50;;;;;;5066524;28;20028;-67
2021/05/13 07:13:24;;;;;;;15.05;12.15;;;15.20;93.30;;;;;;5066715;28;20039;-67
2021/05/13 07:15:49;;;;;;;14.82;12.57;;;15.30;93.30;;;;;;5066568;28;20029;-67
2021/05/13 07:18:16;;;;;;;16.73;12.98;;;15.30;93.10;;;;;;5064938;28;20067;-67
2021/05/13 07:20:43;;;;;;;14.77;11.98;;;15.50;92.80;;;;;;5066599;28;20463;-67
2021/05/13 07:23:09;;;;;;;16.65;11.60;;;15.60;92.60;;;;;;5064876;28;20484;-67
2021/05/13 07:25:35;;;;;;;15.30;12.52;;;15.60;92.50;;;;;;5066499;28;20092;-66
2021/05/13 07:28:01;;;;;;;13.98;11.60;;;15.60;92.20;;;;;;5065834;28;20582;-67
2021/05/13 07:30:27;;;;;;;15.27;13.18;;;15.60;92.10;;;;;;5066503;28;20028;-67
2021/05/13 07:32:53;;;;;;;13.57;11.30;;;15.60;92.10;;;;;;5065982;28;20265;-67
2021/05/13 07:35:19;;;;;;;16.33;12.88;;;15.60;92.20;;;;;;5066117;28;20463;-67
2021/05/13 07:37:46;;;;;;;13.45;11.65;;;15.60;92.30;;;;;;5066580;28;20047;-67
2021/05/13 07:40:15;;;;;;;14.65;13.02;;;15.60;92.40;;;;;;5066495;28;20051;-67
2021/05/13 07:42:40;;;;;;;13.90;11.63;;;15.70;92.10;;;;;;5065823;28;20044;-67
2021/05/13 07:45:07;;;;;;;15.40;13.23;;;15.70;92.00;;;;;;5066309;28;20091;-66
2021/05/13 07:47:37;;;;;;;15.75;10.55;;;15.80;92.10;;;;;;5066036;28;20102;-67
2021/05/13 07:50:20;;;;;;;12.18;10.93;;;15.80;91.90;;;;;;5065989;28;20505;-67
2021/05/13 07:52:47;;;;;;;12.85;10.18;;;15.90;91.90;;;;;;5064521;28;20129;-67
2021/05/13 07:55:13;;;;;;;10.88;9.77;;;15.90;91.50;;;;;;5066056;28;20516;-67
2021/05/13 07:57:39;;;;;;;13.50;8.15;;;15.90;91.70;;;;;;5066235;28;20094;-67
2021/05/13 08:00:06;;;;;;;9.63;8.63;;;16.00;91.30;;;;;;5066075;28;20052;-67
2021/05/13 08:02:32;;;;;;;9.93;8.95;;;16.10;91.00;;;;;;5065639;28;20070;-67
2021/05/13 08:04:58;;;;;;;10.50;7.72;;;16.20;91.00;;;;;;5066118;28;20131;-66
2021/05/13 08:07:23;;;;;;;13.65;9.18;;;16.20;90.70;;;;;;5065537;28;20614;-67
2021/05/13 08:09:49;;;;;;;9.13;7.55;;;16.30;90.70;;;;;;5066256;28;20033;-67
2021/05/13 08:12:16;;;;;;;8.27;7.43;;;16.30;90.70;;;;;;5064194;28;20031;-67
2021/05/13 08:14:43;;;;;;;14.85;9.15;;;16.30;90.80;;;;;;5065570;28;20033;-67
2021/05/13 08:17:08;;;;;;;11.32;9.15;;;16.40;90.40;;;;;;5065448;28;20032;-67
2021/05/13 08:19:34;;;;;;;10.02;8.90;;;16.30;90.50;;;;;;5065594;28;20081;-67
2021/05/13 08:21:59;;;;;;;9.52;8.52;;;16.30;90.60;;;;;;5065826;28;20039;-67
2021/05/13 08:24:25;;;;;;;9.70;8.70;;;16.30;90.70;;;;;;5065415;28;20036;-67
2021/05/13 08:26:51;;;;;;;11.80;7.82;;;16.30;90.70;;;;;;5064457;28;20037;-67
2021/05/13 08:29:17;;;;;;;11.35;10.15;;;16.30;90.90;;;;;;5065926;28;20551;-67
2021/05/13 08:31:42;;;;;;;11.98;10.10;;;16.20;91.00;;;;;;5065226;28;20029;-68
2021/05/13 08:34:08;;;;;;;12.05;8.85;;;16.20;90.90;;;;;;5066077;28;20035;-66
2021/05/13 08:36:34;;;;;;;8.35;7.55;;;16.20;90.60;;;;;;5065705;28;20036;-66
2021/05/13 08:38:59;;;;;;;10.30;5.50;;;16.10;90.90;;;;;;5066331;28;20020;-67
2021/05/13 08:41:25;;;;;;;5.22;4.03;;;16.10;90.40;;;;;;5069856;28;20025;-67
2021/05/13 08:43:52;;;;;;;3.47;3.03;;;16.00;90.60;;;;;;5069135;28;20085;-67
2021/05/13 08:46:19;;;;;;;4.60;3.42;;;16.00;90.40;;;;;;5069173;28;20048;-67
2021/05/13 08:48:46;;;;;;;7.03;4.20;;;16.20;90.30;;;;;;5069573;28;20036;-67
2021/05/13 08:51:11;;;;;;;4.85;3.70;;;16.40;90.00;;;;;;5069230;28;20031;-67
2021/05/13 08:53:51;;;;;;;4.88;3.80;;;16.50;89.90;;;;;;5069085;28;20032;-67
2021/05/13 08:56:17;;;;;;;4.88;4.38;;;16.70;89.90;;;;;;5069325;28;20409;-67
2021/05/13 08:58:44;;;;;;;6.00;3.75;;;16.80;88.80;;;;;;5069111;28;20024;-68
2021/05/13 09:01:24;;;;;;;3.30;3.00;;;16.90;89.60;;;;;;5068647;28;20025;-67
2021/05/13 09:03:51;;;;;;;3.72;3.03;;;17.10;88.20;;;;;;5069032;28;20385;-67
2021/05/13 09:06:40;;;;;;;3.67;2.38;;;17.20;87.80;;;;;;5069324;28;20478;-67
2021/05/13 09:09:19;;;;;;;4.97;2.72;;;17.40;87.30;;;;;;5069066;28;20571;-67
2021/05/13 09:11:55;;;;;;;3.13;2.08;;;17.60;85.10;;;;;;5067487;28;20024;-67
2021/05/13 09:14:27;;;;;;;3.90;2.67;;;17.90;85.30;;;;;;5068875;28;20029;-67
2021/05/13 09:16:54;;;;;;;6.63;2.58;;;18.00;84.70;;;;;;5068255;28;20036;-67
2021/05/13 09:19:31;;;;;;;3.25;2.58;;;18.10;84.30;;;;;;5068858;28;20028;-67
2021/05/13 09:21:57;;;;;;;2.97;2.58;;;18.00;83.50;;;;;;5069040;28;20305;-67
2021/05/13 09:25:07;;;;;;;3.03;2.25;;;17.80;83.40;;;;;;5069056;28;20115;-67
2021/05/13 09:27:43;;;;;;;3.58;2.00;;;17.70;83.70;;;;;;5025905;28;20130;-68
2021/05/13 09:30:11;;;;;;;2.65;2.15;;;17.70;84.30;;;;;;5065423;28;20435;-68
2021/05/13 09:32:38;;;;;;;2.58;2.03;;;17.50;84.90;;;;;;5067086;28;20041;-67
2021/05/13 09:35:08;;;;;;;3.33;2.22;;;17.50;85.30;;;;;;5068839;28;20070;-68
2021/05/13 09:37:38;;;;;;;2.88;1.60;;;17.50;84.90;;;;;;5068723;28;20358;-68
2021/05/13 09:40:05;;;;;;;2.10;1.60;;;17.70;83.70;;;;;;5068561;28;20397;-68
2021/05/13 09:42:30;;;;;;;2.25;1.83;;;17.90;83.10;;;;;;5068343;28;20056;-67
2021/05/13 09:44:56;;;;;;;3.78;2.05;;;18.00;83.20;;;;;;5067868;28;20099;-67
2021/05/13 09:47:27;;;;;;;2.00;1.60;;;17.90;82.70;;;;;;5068141;28;20039;-68
2021/05/13 09:50:18;;;;;;;2.72;2.17;;;17.80;82.00;;;;;;5068524;28;20030;-68
2021/05/13 09:52:47;;;;;;;2.30;1.63;;;17.80;81.80;;;;;;5067316;28;20151;-68
2021/05/13 09:55:31;;;;;;;4.10;2.00;;;17.80;82.10;;;;;;5068324;28;20029;-68
2021/05/13 09:58:09;;;;;;;3.20;2.20;;;17.90;82.70;;;;;;5066810;28;20119;-67
2021/05/13 10:00:36;;;;;;;3.67;2.22;;;17.80;82.70;;;;;;5067875;28;20526;-67
2021/05/13 10:03:05;;;;;;;2.05;1.60;;;17.70;83.60;;;;;;5067799;28;20050;-68
2021/05/13 10:05:32;;;;;;;2.75;2.10;;;17.70;83.50;;;;;;5068288;28;20590;-67
2021/05/13 10:07:58;;;;;;;2.15;1.65;;;17.60;83.70;;;;;;5067736;28;20235;-67
2021/05/13 10:10:23;;;;;;;3.05;2.10;;;17.70;83.80;;;;;;5068065;28;20021;-68
2021/05/13 10:12:53;;;;;;;2.35;1.40;;;17.90;84.70;;;;;;5068165;28;20028;-67
2021/05/13 10:15:19;;;;;;;1.67;1.33;;;18.10;83.80;;;;;;5067333;28;20484;-69
2021/05/13 10:17:46;;;;;;;2.08;1.50;;;18.20;82.50;;;;;;5067911;28;20119;-67
2021/05/13 10:20:20;;;;;;;4.35;1.35;;;18.30;82.10;;;;;;5068143;28;20614;-67
2021/05/13 10:22:47;;;;;;;4.43;1.25;;;18.20;80.90;;;;;;5067332;28;20028;-68
2021/05/13 10:25:27;;;;;;;1.25;0.82;;;18.00;81.00;;;;;;5066618;28;20032;-68
2021/05/13 10:27:58;;;;;;;1.92;1.00;;;18.00;80.90;;;;;;5067002;28;20039;-66
2021/05/13 10:30:30;;;;;;;2.47;1.17;;;17.90;81.50;;;;;;5066798;28;20023;-68
2021/05/13 10:33:17;;;;;;;2.00;1.20;;;17.70;81.90;;;;;;5066188;28;20530;-67
2021/05/13 10:36:07;;;;;;;2.60;0.90;;;17.40;84.50;;;;;;5067647;28;20021;-67
2021/05/13 10:38:51;;;;;;;1.10;0.90;;;17.30;83.80;;;;;;5067278;28;20043;-67
2021/05/13 10:41:41;;;;;;;1.60;0.80;;;17.30;83.80;;;;;;5067502;28;20024;-65
2021/05/13 10:44:09;;;;;;;1.67;0.90;;;17.30;84.10;;;;;;5066959;28;20089;-68
2021/05/13 10:46:37;;;;;;;1.25;0.73;;;17.30;83.40;;;;;;5066930;28;20036;-67
2021/05/13 10:49:15;;;;;;;1.35;0.82;;;17.10;84.00;;;;;;5067433;28;20064;-67
2021/05/13 10:51:43;;;;;;;1.33;0.70;;;16.90;85.30;;;;;;5067166;28;20036;-67
2021/05/13 10:54:08;;;;;;;2.00;0.50;;;16.70;86.40;;;;;;5066925;28;20214;-67
2021/05/13 10:56:38;;;;;;;1.17;0.50;;;16.70;86.80;;;;;;5066653;28;20029;-67
2021/05/13 10:59:09;;;;;;;0.90;0.57;;;16.60;86.60;;;;;;5066280;28;20032;-67
2021/05/13 11:01:34;;;;;;;1.15;0.57;;;16.40;86.90;;;;;;5067097;28;20108;-67
2021/05/13 11:04:22;;;;;;;1.10;0.70;;;16.20;87.30;;;;;;5065693;28;20536;-67
2021/05/13 11:06:53;;;;;;;2.80;1.00;;;16.20;89.10;;;;;;5066691;28;20040;-67
2021/05/13 11:09:45;;;;;;;0.82;0.60;;;16.40;88.30;;;;;;5066835;28;20032;-67
2021/05/13 11:12:27;;;;;;;1.30;0.90;;;16.70;88.10;;;;;;5066494;28;20586;-67
2021/05/13 11:15:11;;;;;;;2.22;0.60;;;17.00;87.70;;;;;;5064540;28;20028;-67
2021/05/13 11:20:18;;;;;;;1.85;0.60;;;17.40;85.50;;;;;;5066462;28;20056;-67
2021/05/13 11:22:56;;;;;;;1.45;0.63;;;17.60;84.30;;;;;;5064699;28;20059;-67
2021/05/13 11:25:22;;;;;;;1.75;0.95;;;17.80;83.90;;;;;;5066191;28;20124;-67
2021/05/13 11:27:48;;;;;;;4.07;1.05;;;17.90;83.30;;;;;;5066220;28;20504;-67
2021/05/13 11:30:14;;;;;;;2.50;0.80;;;18.10;82.00;;;;;;5066146;28;20035;-67
2021/05/13 11:32:40;;;;;;;1.17;0.60;;;18.10;80.90;;;;;;5066329;28;20086;-68
2021/05/13 11:35:07;;;;;;;3.10;0.75;;;18.20;80.90;;;;;;5066493;28;20029;-67
2021/05/13 11:37:44;;;;;;;2.50;0.82;;;18.10;80.60;;;;;;5066010;28;20037;-67
2021/05/13 11:40:20;;;;;;;1.90;1.20;;;17.90;81.40;;;;;;5066542;28;20024;-66
2021/05/13 11:42:46;;;;;;;1.17;0.77;;;17.80;81.70;;;;;;5066515;28;20032;-67
2021/05/13 11:45:23;;;;;;;1.27;0.68;;;17.60;83.10;;;;;;5065502;28;20053;-67
2021/05/13 11:47:49;;;;;;;2.72;0.90;;;17.50;83.10;;;;;;5066229;28;20046;-68
2021/05/13 11:50:29;;;;;;;2.03;0.95;;;17.50;83.30;;;;;;5066433;28;20100;-67
2021/05/13 11:53:14;;;;;;;1.40;0.70;;;17.40;84.70;;;;;;5066311;28;20152;-66
2021/05/13 11:55:40;;;;;;;1.95;1.60;;;17.60;84.40;;;;;;5066291;28;20016;-68
2021/05/13 11:58:07;;;;;;;7.15;1.88;;;17.80;84.70;;;;;;5065577;28;20028;-68
2021/05/13 12:00:33;;;;;;;2.78;1.00;;;18.30;84.00;;;;;;5066234;28;20143;-67
2021/05/13 12:03:12;;;;;;;3.15;1.08;;;18.80;82.70;;;;;;5066155;28;20114;-67
2021/05/13 12:05:52;;;;;;;3.75;0.80;;;19.00;81.10;;;;;;5064594;28;20078;-67
2021/05/13 12:08:22;;;;;;;1.40;0.80;;;19.20;79.00;;;;;;5066502;28;20044;-68
2021/05/13 12:10:49;;;;;;;1.33;0.70;;;19.30;77.10;;;;;;5066251;28;20086;-68
2021/05/13 12:13:15;;;;;;;4.15;0.88;;;19.20;77.30;;;;;;5064094;28;20427;-67
2021/05/13 12:15:41;;;;;;;3.40;0.63;;;19.00;78.20;;;;;;5069241;28;20395;-67
2021/05/13 12:18:08;;;;;;;1.52;0.63;;;19.00;78.70;;;;;;5070137;28;20036;-67
2021/05/13 12:20:37;;;;;;;2.50;0.70;;;18.80;79.80;;;;;;5070066;28;20040;-67
2021/05/13 12:23:04;;;;;;;1.92;0.85;;;18.80;80.20;;;;;;5069650;28;20029;-67
2021/05/13 12:25:32;;;;;;;2.17;0.95;;;18.80;80.00;;;;;;5068738;28;20055;-68
2021/05/13 12:27:58;;;;;;;1.55;0.70;;;18.80;79.70;;;;;;5069603;28;20036;-68
2021/05/13 12:30:24;;;;;;;0.68;0.40;;;18.70;78.90;;;;;;5069710;28;20025;-68
2021/05/13 12:32:50;;;;;;;1.85;0.80;;;18.70;80.60;;;;;;5069912;28;20021;-67
2021/05/13 12:35:32;;;;;;;0.88;0.60;;;18.80;80.40;;;;;;5069449;28;20094;-68
2021/05/13 12:38:14;;;;;;;0.50;0.40;;;19.00;80.30;;;;;;5069429;28;20041;-66
2021/05/13 12:40:41;;;;;;;0.45;0.40;;;19.20;78.60;;;;;;5069670;28;20021;-67
2021/05/13 12:43:14;;;;;;;2.88;0.52;;;19.20;77.30;;;;;;5068850;28;20031;-67
2021/05/13 12:45:50;;;;;;;1.38;0.60;;;19.10;77.60;;;;;;5068620;28;20501;-67
2021/05/13 12:48:27;;;;;;;0.65;0.52;;;19.10;78.30;;;;;;5069611;28;20082;-67
2021/05/13 12:51:07;;;;;;;1.15;0.50;;;19.00;78.10;;;;;;5069452;28;20111;-66
2021/05/13 12:53:33;;;;;;;1.75;0.47;;;18.90;78.00;;;;;;5067592;28;20028;-68
2021/05/13 12:55:59;;;;;;;2.78;0.60;;;18.80;78.50;;;;;;5068934;28;20028;-66
2021/05/13 12:58:27;;;;;;;2.05;0.60;;;18.70;78.90;;;;;;5067415;28;20047;-67
2021/05/13 13:00:59;;;;;;;2.72;0.40;;;18.50;79.80;;;;;;5066226;28;20075;-67
2021/05/13 13:03:32;;;;;;;3.75;0.50;;;18.30;80.60;;;;;;5067929;28;20037;-66